sensor_id;sensor_type;location;lat;lon;timestamp;P1;durP1;ratioP1;P2;durP2;ratioP2
68976;SDS011;56029;52.568;13.588;2023-04-16T00:00:56;33.47;;;17.23;;
68976;SDS011;56029;52.568;13.588;2023-04-16T00:03:31;32.73;;;17.50;;
68976;SDS011;56029;52.568;13.588;2023-04-16T00:05:56;33.05;;;18.05;;
68976;SDS011;56029;52.568;13.588;2023-04-16T00:08:23;32.22;;;17.00;;
68976;SDS011;56029;52.568;13.588;2023-04-16T00:10:49;34.97;;;17.77;;
68976;SDS011;56029;52.568;13.588;2023-04-16T00:13:15;33.72;;;17.60;;
68976;SDS011;56029;52.568;13.588;2023-04-16T00:15:41;33.00;;;17.85;;
68976;SDS011;56029;52.568;13.588;2023-04-16T00:18:06;31.70;;;16.97;;
68976;SDS011;56029;52.568;13.588;2023-04-16T00:20:32;31.80;;;16.77;;
68976;SDS011;56029;52.568;13.588;2023-04-16T00:22:57;34.27;;;17.67;;
68976;SDS011;56029;52.568;13.588;2023-04-16T00:25:23;32.37;;;17.60;;
68976;SDS011;56029;52.568;13.588;2023-04-16T00:27:49;32.17;;;17.13;;
68976;SDS011;56029;52.568;13.588;2023-04-16T00:30:14;31.50;;;17.55;;
68976;SDS011;56029;52.568;13.588;2023-04-16T00:32:40;30.97;;;17.37;;
68976;SDS011;56029;52.568;13.588;2023-04-16T00:35:05;32.73;;;17.17;;
68976;SDS011;56029;52.568;13.588;2023-04-16T00:37:31;33.63;;;17.35;;
68976;SDS011;56029;52.568;13.588;2023-04-16T00:39:57;33.57;;;17.17;;
68976;SDS011;56029;52.568;13.588;2023-04-16T00:42:22;34.05;;;17.77;;
68976;SDS011;56029;52.568;13.588;2023-04-16T00:44:48;33.00;;;17.37;;
68976;SDS011;56029;52.568;13.588;2023-04-16T00:47:13;37.07;;;18.80;;
68976;SDS011;56029;52.568;13.588;2023-04-16T00:49:39;36.13;;;18.67;;
68976;SDS011;56029;52.568;13.588;2023-04-16T00:52:05;35.97;;;18.48;;
68976;SDS011;56029;52.568;13.588;2023-04-16T00:54:31;34.13;;;18.13;;
68976;SDS011;56029;52.568;13.588;2023-04-16T00:56:57;33.17;;;17.63;;
68976;SDS011;56029;52.568;13.588;2023-04-16T00:59:23;33.47;;;17.50;;
68976;SDS011;56029;52.568;13.588;2023-04-16T01:01:49;34.40;;;17.98;;
68976;SDS011;56029;52.568;13.588;2023-04-16T01:04:15;37.23;;;18.77;;
68976;SDS011;56029;52.568;13.588;2023-04-16T01:06:41;34.80;;;18.73;;
68976;SDS011;56029;52.568;13.588;2023-04-16T01:09:06;34.87;;;18.60;;
68976;SDS011;56029;52.568;13.588;2023-04-16T01:11:32;36.45;;;18.10;;
68976;SDS011;56029;52.568;13.588;2023-04-16T01:13:57;35.10;;;18.37;;
68976;SDS011;56029;52.568;13.588;2023-04-16T01:16:23;33.93;;;17.90;;
68976;SDS011;56029;52.568;13.588;2023-04-16T01:18:48;33.55;;;18.27;;
68976;SDS011;56029;52.568;13.588;2023-04-16T01:21:14;33.93;;;18.40;;
68976;SDS011;56029;52.568;13.588;2023-04-16T01:23:39;35.27;;;17.80;;
68976;SDS011;56029;52.568;13.588;2023-04-16T01:26:05;35.05;;;18.50;;
68976;SDS011;56029;52.568;13.588;2023-04-16T01:28:30;35.50;;;17.57;;
68976;SDS011;56029;52.568;13.588;2023-04-16T01:30:56;34.38;;;18.63;;
68976;SDS011;56029;52.568;13.588;2023-04-16T01:33:22;35.33;;;18.27;;
68976;SDS011;56029;52.568;13.588;2023-04-16T01:35:47;33.57;;;17.97;;
68976;SDS011;56029;52.568;13.588;2023-04-16T01:38:13;34.40;;;18.25;;
68976;SDS011;56029;52.568;13.588;2023-04-16T01:40:38;33.70;;;17.60;;
68976;SDS011;56029;52.568;13.588;2023-04-16T01:43:04;34.67;;;18.57;;
68976;SDS011;56029;52.568;13.588;2023-04-16T01:45:33;37.35;;;18.23;;
68976;SDS011;56029;52.568;13.588;2023-04-16T01:48:00;36.33;;;18.53;;
68976;SDS011;56029;52.568;13.588;2023-04-16T01:50:26;35.40;;;18.40;;
68976;SDS011;56029;52.568;13.588;2023-04-16T01:52:52;36.38;;;18.73;;
68976;SDS011;56029;52.568;13.588;2023-04-16T01:55:17;36.90;;;19.00;;
68976;SDS011;56029;52.568;13.588;2023-04-16T01:57:43;34.53;;;18.23;;
68976;SDS011;56029;52.568;13.588;2023-04-16T02:00:09;38.92;;;19.27;;
68976;SDS011;56029;52.568;13.588;2023-04-16T02:02:35;36.23;;;18.33;;
68976;SDS011;56029;52.568;13.588;2023-04-16T02:05:01;37.13;;;18.20;;
68976;SDS011;56029;52.568;13.588;2023-04-16T02:07:26;34.03;;;18.70;;
68976;SDS011;56029;52.568;13.588;2023-04-16T02:09:52;36.15;;;17.90;;
68976;SDS011;56029;52.568;13.588;2023-04-16T02:12:18;36.40;;;17.80;;
68976;SDS011;56029;52.568;13.588;2023-04-16T02:14:43;35.53;;;18.05;;
68976;SDS011;56029;52.568;13.588;2023-04-16T02:17:09;33.53;;;17.43;;
68976;SDS011;56029;52.568;13.588;2023-04-16T02:19:35;34.50;;;18.20;;
68976;SDS011;56029;52.568;13.588;2023-04-16T02:22:01;35.33;;;18.13;;
68976;SDS011;56029;52.568;13.588;2023-04-16T02:24:26;35.83;;;18.02;;
68976;SDS011;56029;52.568;13.588;2023-04-16T02:26:52;33.87;;;16.73;;
68976;SDS011;56029;52.568;13.588;2023-04-16T02:29:18;32.47;;;17.47;;
68976;SDS011;56029;52.568;13.588;2023-04-16T02:31:44;34.55;;;18.38;;
68976;SDS011;56029;52.568;13.588;2023-04-16T02:34:10;35.60;;;17.60;;
68976;SDS011;56029;52.568;13.588;2023-04-16T02:36:36;37.50;;;18.07;;
68976;SDS011;56029;52.568;13.588;2023-04-16T02:39:02;35.10;;;18.17;;
68976;SDS011;56029;52.568;13.588;2023-04-16T02:41:27;35.53;;;17.87;;
68976;SDS011;56029;52.568;13.588;2023-04-16T02:43:53;35.65;;;18.55;;
68976;SDS011;56029;52.568;13.588;2023-04-16T02:46:18;36.53;;;18.33;;
68976;SDS011;56029;52.568;13.588;2023-04-16T02:48:44;37.78;;;19.52;;
68976;SDS011;56029;52.568;13.588;2023-04-16T02:51:10;36.50;;;19.37;;
68976;SDS011;56029;52.568;13.588;2023-04-16T02:53:36;40.50;;;20.25;;
68976;SDS011;56029;52.568;13.588;2023-04-16T02:56:01;42.77;;;20.50;;
68976;SDS011;56029;52.568;13.588;2023-04-16T02:58:27;43.10;;;22.07;;
68976;SDS011;56029;52.568;13.588;2023-04-16T03:00:53;44.78;;;22.13;;
68976;SDS011;56029;52.568;13.588;2023-04-16T03:03:18;41.25;;;20.27;;
68976;SDS011;56029;52.568;13.588;2023-04-16T03:05:44;45.73;;;23.53;;
68976;SDS011;56029;52.568;13.588;2023-04-16T03:08:10;47.55;;;21.85;;
68976;SDS011;56029;52.568;13.588;2023-04-16T03:10:35;51.00;;;23.80;;
68976;SDS011;56029;52.568;13.588;2023-04-16T03:13:01;48.08;;;23.35;;
68976;SDS011;56029;52.568;13.588;2023-04-16T03:15:28;48.07;;;24.13;;
68976;SDS011;56029;52.568;13.588;2023-04-16T03:17:54;51.85;;;22.52;;
68976;SDS011;56029;52.568;13.588;2023-04-16T03:20:20;48.67;;;22.77;;
68976;SDS011;56029;52.568;13.588;2023-04-16T03:22:45;53.37;;;24.90;;
68976;SDS011;56029;52.568;13.588;2023-04-16T03:25:11;54.40;;;24.80;;
68976;SDS011;56029;52.568;13.588;2023-04-16T03:27:38;46.33;;;20.75;;
68976;SDS011;56029;52.568;13.588;2023-04-16T03:30:07;51.65;;;23.95;;
68976;SDS011;56029;52.568;13.588;2023-04-16T03:32:34;50.10;;;22.67;;
68976;SDS011;56029;52.568;13.588;2023-04-16T03:35:00;52.03;;;24.58;;
68976;SDS011;56029;52.568;13.588;2023-04-16T03:37:25;52.77;;;24.30;;
68976;SDS011;56029;52.568;13.588;2023-04-16T03:39:51;60.10;;;25.27;;
68976;SDS011;56029;52.568;13.588;2023-04-16T03:42:16;53.90;;;23.83;;
68976;SDS011;56029;52.568;13.588;2023-04-16T03:44:42;52.00;;;24.53;;
68976;SDS011;56029;52.568;13.588;2023-04-16T03:47:08;54.27;;;25.00;;
68976;SDS011;56029;52.568;13.588;2023-04-16T03:49:33;53.55;;;22.42;;
68976;SDS011;56029;52.568;13.588;2023-04-16T03:51:59;49.10;;;22.47;;
68976;SDS011;56029;52.568;13.588;2023-04-16T03:54:24;52.10;;;24.80;;
68976;SDS011;56029;52.568;13.588;2023-04-16T03:56:50;53.55;;;23.58;;
68976;SDS011;56029;52.568;13.588;2023-04-16T03:59:16;52.83;;;24.80;;
68976;SDS011;56029;52.568;13.588;2023-04-16T04:01:42;50.03;;;22.55;;
68976;SDS011;56029;52.568;13.588;2023-04-16T04:04:08;49.23;;;24.03;;
68976;SDS011;56029;52.568;13.588;2023-04-16T04:06:33;54.83;;;24.10;;
68976;SDS011;56029;52.568;13.588;2023-04-16T04:08:59;47.57;;;22.07;;
68976;SDS011;56029;52.568;13.588;2023-04-16T04:11:25;54.28;;;23.33;;
68976;SDS011;56029;52.568;13.588;2023-04-16T04:13:50;52.67;;;22.77;;
68976;SDS011;56029;52.568;13.588;2023-04-16T04:16:16;51.00;;;23.05;;
68976;SDS011;56029;52.568;13.588;2023-04-16T04:18:42;52.00;;;23.43;;
68976;SDS011;56029;52.568;13.588;2023-04-16T04:21:07;50.00;;;23.00;;
68976;SDS011;56029;52.568;13.588;2023-04-16T04:23:33;53.45;;;25.15;;
68976;SDS011;56029;52.568;13.588;2023-04-16T04:25:59;52.38;;;23.17;;
68976;SDS011;56029;52.568;13.588;2023-04-16T04:28:28;53.47;;;23.75;;
68976;SDS011;56029;52.568;13.588;2023-04-16T04:30:55;50.60;;;22.17;;
68976;SDS011;56029;52.568;13.588;2023-04-16T04:33:21;50.28;;;23.27;;
68976;SDS011;56029;52.568;13.588;2023-04-16T04:35:47;52.87;;;23.27;;
68976;SDS011;56029;52.568;13.588;2023-04-16T04:38:12;52.77;;;22.43;;
68976;SDS011;56029;52.568;13.588;2023-04-16T04:40:38;51.90;;;24.00;;
68976;SDS011;56029;52.568;13.588;2023-04-16T04:43:03;53.65;;;23.90;;
68976;SDS011;56029;52.568;13.588;2023-04-16T04:45:29;53.10;;;21.17;;
68976;SDS011;56029;52.568;13.588;2023-04-16T04:47:54;55.53;;;23.10;;
68976;SDS011;56029;52.568;13.588;2023-04-16T04:50:20;62.30;;;24.45;;
68976;SDS011;56029;52.568;13.588;2023-04-16T04:52:46;56.73;;;24.10;;
68976;SDS011;56029;52.568;13.588;2023-04-16T04:55:12;62.20;;;24.98;;
68976;SDS011;56029;52.568;13.588;2023-04-16T04:57:40;59.70;;;24.75;;
68976;SDS011;56029;52.568;13.588;2023-04-16T05:00:06;59.93;;;24.60;;
68976;SDS011;56029;52.568;13.588;2023-04-16T05:02:33;54.92;;;22.48;;
68976;SDS011;56029;52.568;13.588;2023-04-16T05:04:58;54.47;;;24.03;;
68976;SDS011;56029;52.568;13.588;2023-04-16T05:07:24;57.85;;;23.30;;
68976;SDS011;56029;52.568;13.588;2023-04-16T05:09:49;54.30;;;23.00;;
68976;SDS011;56029;52.568;13.588;2023-04-16T05:12:15;61.28;;;24.48;;
68976;SDS011;56029;52.568;13.588;2023-04-16T05:14:40;61.13;;;24.50;;
68976;SDS011;56029;52.568;13.588;2023-04-16T05:17:06;58.60;;;24.37;;
68976;SDS011;56029;52.568;13.588;2023-04-16T05:19:32;57.15;;;23.50;;
68976;SDS011;56029;52.568;13.588;2023-04-16T05:21:58;56.55;;;24.60;;
68976;SDS011;56029;52.568;13.588;2023-04-16T05:24:23;59.77;;;24.03;;
68976;SDS011;56029;52.568;13.588;2023-04-16T05:26:49;61.33;;;24.63;;
68976;SDS011;56029;52.568;13.588;2023-04-16T05:29:15;60.30;;;24.90;;
68976;SDS011;56029;52.568;13.588;2023-04-16T05:31:41;62.95;;;24.60;;
68976;SDS011;56029;52.568;13.588;2023-04-16T05:34:06;58.90;;;24.20;;
68976;SDS011;56029;52.568;13.588;2023-04-16T05:36:32;58.90;;;24.53;;
68976;SDS011;56029;52.568;13.588;2023-04-16T05:38:57;60.55;;;24.40;;
68976;SDS011;56029;52.568;13.588;2023-04-16T05:41:23;59.47;;;24.27;;
68976;SDS011;56029;52.568;13.588;2023-04-16T05:43:48;57.10;;;23.37;;
68976;SDS011;56029;52.568;13.588;2023-04-16T05:46:14;55.40;;;23.20;;
68976;SDS011;56029;52.568;13.588;2023-04-16T05:48:39;52.47;;;21.80;;
68976;SDS011;56029;52.568;13.588;2023-04-16T05:51:05;60.17;;;24.13;;
68976;SDS011;56029;52.568;13.588;2023-04-16T05:53:30;58.03;;;23.77;;
68976;SDS011;56029;52.568;13.588;2023-04-16T05:55:56;53.00;;;22.83;;
68976;SDS011;56029;52.568;13.588;2023-04-16T05:58:21;61.03;;;24.07;;
68976;SDS011;56029;52.568;13.588;2023-04-16T06:00:47;50.67;;;23.02;;
68976;SDS011;56029;52.568;13.588;2023-04-16T06:03:12;49.43;;;22.27;;
68976;SDS011;56029;52.568;13.588;2023-04-16T06:05:38;49.35;;;22.27;;
68976;SDS011;56029;52.568;13.588;2023-04-16T06:08:03;49.60;;;22.53;;
68976;SDS011;56029;52.568;13.588;2023-04-16T06:10:29;43.73;;;21.60;;
68976;SDS011;56029;52.568;13.588;2023-04-16T06:12:55;48.15;;;21.98;;
68976;SDS011;56029;52.568;13.588;2023-04-16T06:15:21;49.53;;;20.80;;
68976;SDS011;56029;52.568;13.588;2023-04-16T06:17:46;45.40;;;20.55;;
68976;SDS011;56029;52.568;13.588;2023-04-16T06:20:12;48.47;;;22.60;;
68976;SDS011;56029;52.568;13.588;2023-04-16T06:22:37;45.03;;;21.47;;
68976;SDS011;56029;52.568;13.588;2023-04-16T06:25:03;45.30;;;20.98;;
68976;SDS011;56029;52.568;13.588;2023-04-16T06:27:29;44.80;;;20.92;;
68976;SDS011;56029;52.568;13.588;2023-04-16T06:29:55;44.77;;;21.50;;
68976;SDS011;56029;52.568;13.588;2023-04-16T06:32:21;46.80;;;20.83;;
68976;SDS011;56029;52.568;13.588;2023-04-16T06:34:47;44.73;;;21.10;;
68976;SDS011;56029;52.568;13.588;2023-04-16T06:37:12;46.87;;;21.80;;
68976;SDS011;56029;52.568;13.588;2023-04-16T06:39:38;44.57;;;21.20;;
68976;SDS011;56029;52.568;13.588;2023-04-16T06:42:03;47.27;;;20.60;;
68976;SDS011;56029;52.568;13.588;2023-04-16T06:44:29;43.58;;;21.90;;
68976;SDS011;56029;52.568;13.588;2023-04-16T06:46:55;40.10;;;19.40;;
68976;SDS011;56029;52.568;13.588;2023-04-16T06:49:20;39.80;;;18.10;;
68976;SDS011;56029;52.568;13.588;2023-04-16T06:51:46;37.77;;;17.93;;
68976;SDS011;56029;52.568;13.588;2023-04-16T06:54:12;40.70;;;18.88;;
68976;SDS011;56029;52.568;13.588;2023-04-16T06:56:37;37.90;;;18.30;;
68976;SDS011;56029;52.568;13.588;2023-04-16T06:59:03;38.25;;;18.25;;
68976;SDS011;56029;52.568;13.588;2023-04-16T07:01:30;37.43;;;18.13;;
68976;SDS011;56029;52.568;13.588;2023-04-16T07:03:56;37.63;;;17.08;;
68976;SDS011;56029;52.568;13.588;2023-04-16T07:06:22;42.03;;;19.42;;
68976;SDS011;56029;52.568;13.588;2023-04-16T07:08:47;40.57;;;18.47;;
68976;SDS011;56029;52.568;13.588;2023-04-16T07:11:13;38.67;;;18.23;;
68976;SDS011;56029;52.568;13.588;2023-04-16T07:13:39;40.15;;;18.73;;
68976;SDS011;56029;52.568;13.588;2023-04-16T07:16:04;38.73;;;17.93;;
68976;SDS011;56029;52.568;13.588;2023-04-16T07:18:30;35.47;;;17.63;;
68976;SDS011;56029;52.568;13.588;2023-04-16T07:20:55;36.80;;;17.57;;
68976;SDS011;56029;52.568;13.588;2023-04-16T07:23:21;37.60;;;17.45;;
68976;SDS011;56029;52.568;13.588;2023-04-16T07:25:47;38.83;;;17.80;;
68976;SDS011;56029;52.568;13.588;2023-04-16T07:28:12;39.45;;;18.20;;
68976;SDS011;56029;52.568;13.588;2023-04-16T07:30:40;37.00;;;17.43;;
68976;SDS011;56029;52.568;13.588;2023-04-16T07:33:06;37.13;;;17.75;;
68976;SDS011;56029;52.568;13.588;2023-04-16T07:35:31;35.47;;;17.23;;
68976;SDS011;56029;52.568;13.588;2023-04-16T07:37:57;37.95;;;17.02;;
68976;SDS011;56029;52.568;13.588;2023-04-16T07:40:22;36.67;;;17.60;;
68976;SDS011;56029;52.568;13.588;2023-04-16T07:42:49;37.55;;;18.08;;
68976;SDS011;56029;52.568;13.588;2023-04-16T07:45:15;37.33;;;17.70;;
68976;SDS011;56029;52.568;13.588;2023-04-16T07:47:41;40.38;;;18.65;;
68976;SDS011;56029;52.568;13.588;2023-04-16T07:50:07;40.77;;;17.43;;
68976;SDS011;56029;52.568;13.588;2023-04-16T07:52:33;39.88;;;19.02;;
68976;SDS011;56029;52.568;13.588;2023-04-16T07:54:58;41.72;;;20.70;;
68976;SDS011;56029;52.568;13.588;2023-04-16T07:57:24;41.50;;;19.60;;
68976;SDS011;56029;52.568;13.588;2023-04-16T07:59:49;39.77;;;19.80;;
68976;SDS011;56029;52.568;13.588;2023-04-16T08:02:15;39.55;;;20.38;;
68976;SDS011;56029;52.568;13.588;2023-04-16T08:04:42;41.55;;;19.67;;
68976;SDS011;56029;52.568;13.588;2023-04-16T08:07:08;42.00;;;19.58;;
68976;SDS011;56029;52.568;13.588;2023-04-16T08:09:34;38.13;;;18.03;;
68976;SDS011;56029;52.568;13.588;2023-04-16T08:12:02;40.40;;;19.65;;
68976;SDS011;56029;52.568;13.588;2023-04-16T08:14:28;40.80;;;19.00;;
68976;SDS011;56029;52.568;13.588;2023-04-16T08:16:54;39.22;;;19.00;;
68976;SDS011;56029;52.568;13.588;2023-04-16T08:19:19;42.67;;;19.23;;
68976;SDS011;56029;52.568;13.588;2023-04-16T08:21:45;41.88;;;18.65;;
68976;SDS011;56029;52.568;13.588;2023-04-16T08:24:11;38.50;;;18.23;;
68976;SDS011;56029;52.568;13.588;2023-04-16T08:26:37;37.47;;;17.48;;
68976;SDS011;56029;52.568;13.588;2023-04-16T08:29:02;38.30;;;17.60;;
68976;SDS011;56029;52.568;13.588;2023-04-16T08:31:28;36.25;;;16.98;;
68976;SDS011;56029;52.568;13.588;2023-04-16T08:33:53;36.47;;;17.93;;
68976;SDS011;56029;52.568;13.588;2023-04-16T08:36:19;38.07;;;17.67;;
68976;SDS011;56029;52.568;13.588;2023-04-16T08:38:44;37.55;;;17.50;;
68976;SDS011;56029;52.568;13.588;2023-04-16T08:41:11;33.87;;;16.40;;
68976;SDS011;56029;52.568;13.588;2023-04-16T08:43:37;36.85;;;17.48;;
68976;SDS011;56029;52.568;13.588;2023-04-16T08:46:07;35.90;;;17.63;;
68976;SDS011;56029;52.568;13.588;2023-04-16T08:48:33;36.92;;;17.77;;
68976;SDS011;56029;52.568;13.588;2023-04-16T08:51:00;37.30;;;17.73;;
68976;SDS011;56029;52.568;13.588;2023-04-16T08:53:28;36.47;;;18.15;;
68976;SDS011;56029;52.568;13.588;2023-04-16T08:55:59;38.78;;;17.23;;
68976;SDS011;56029;52.568;13.588;2023-04-16T08:58:30;35.60;;;17.70;;
68976;SDS011;56029;52.568;13.588;2023-04-16T09:00:59;31.92;;;16.05;;
68976;SDS011;56029;52.568;13.588;2023-04-16T09:03:25;32.50;;;16.50;;
68976;SDS011;56029;52.568;13.588;2023-04-16T09:05:53;31.85;;;15.27;;
68976;SDS011;56029;52.568;13.588;2023-04-16T09:08:21;29.20;;;15.05;;
68976;SDS011;56029;52.568;13.588;2023-04-16T09:10:47;29.02;;;14.52;;
68976;SDS011;56029;52.568;13.588;2023-04-16T09:13:13;28.10;;;14.70;;
68976;SDS011;56029;52.568;13.588;2023-04-16T09:15:41;27.17;;;13.60;;
68976;SDS011;56029;52.568;13.588;2023-04-16T09:18:07;28.38;;;14.15;;
68976;SDS011;56029;52.568;13.588;2023-04-16T09:20:33;27.00;;;13.50;;
68976;SDS011;56029;52.568;13.588;2023-04-16T09:22:58;25.70;;;13.52;;
68976;SDS011;56029;52.568;13.588;2023-04-16T09:25:24;28.13;;;14.03;;
68976;SDS011;56029;52.568;13.588;2023-04-16T09:27:50;28.33;;;14.70;;
68976;SDS011;56029;52.568;13.588;2023-04-16T09:32:46;25.70;;;13.40;;
68976;SDS011;56029;52.568;13.588;2023-04-16T09:35:12;25.90;;;13.60;;
68976;SDS011;56029;52.568;13.588;2023-04-16T09:37:38;28.35;;;15.63;;
68976;SDS011;56029;52.568;13.588;2023-04-16T09:40:04;28.17;;;14.93;;
68976;SDS011;56029;52.568;13.588;2023-04-16T09:42:31;27.38;;;14.02;;
68976;SDS011;56029;52.568;13.588;2023-04-16T09:44:59;28.58;;;14.75;;
68976;SDS011;56029;52.568;13.588;2023-04-16T09:47:25;30.55;;;14.70;;
68976;SDS011;56029;52.568;13.588;2023-04-16T09:50:02;28.00;;;14.53;;
68976;SDS011;56029;52.568;13.588;2023-04-16T09:52:27;29.20;;;15.07;;
68976;SDS011;56029;52.568;13.588;2023-04-16T09:54:53;29.67;;;15.63;;
68976;SDS011;56029;52.568;13.588;2023-04-16T09:57:22;30.40;;;14.93;;
68976;SDS011;56029;52.568;13.588;2023-04-16T09:59:52;29.23;;;14.60;;
68976;SDS011;56029;52.568;13.588;2023-04-16T10:02:25;30.77;;;15.25;;
68976;SDS011;56029;52.568;13.588;2023-04-16T10:04:54;31.95;;;15.65;;
68976;SDS011;56029;52.568;13.588;2023-04-16T10:07:20;31.00;;;15.13;;
68976;SDS011;56029;52.568;13.588;2023-04-16T10:09:46;28.25;;;14.73;;
68976;SDS011;56029;52.568;13.588;2023-04-16T10:12:13;26.27;;;14.07;;
68976;SDS011;56029;52.568;13.588;2023-04-16T10:14:39;25.23;;;13.45;;
68976;SDS011;56029;52.568;13.588;2023-04-16T10:17:06;24.15;;;13.23;;
68976;SDS011;56029;52.568;13.588;2023-04-16T10:19:32;27.70;;;14.40;;
68976;SDS011;56029;52.568;13.588;2023-04-16T10:21:59;24.00;;;12.82;;
68976;SDS011;56029;52.568;13.588;2023-04-16T10:24:25;25.85;;;13.65;;
68976;SDS011;56029;52.568;13.588;2023-04-16T10:26:50;26.03;;;12.53;;
68976;SDS011;56029;52.568;13.588;2023-04-16T10:29:18;23.98;;;12.45;;
68976;SDS011;56029;52.568;13.588;2023-04-16T10:31:44;24.58;;;12.90;;
68976;SDS011;56029;52.568;13.588;2023-04-16T10:34:11;23.75;;;12.25;;
68976;SDS011;56029;52.568;13.588;2023-04-16T10:36:37;22.97;;;12.13;;
68976;SDS011;56029;52.568;13.588;2023-04-16T10:39:05;22.90;;;11.82;;
68976;SDS011;56029;52.568;13.588;2023-04-16T10:41:34;21.08;;;11.98;;
68976;SDS011;56029;52.568;13.588;2023-04-16T10:44:08;21.38;;;11.82;;
68976;SDS011;56029;52.568;13.588;2023-04-16T10:46:37;20.60;;;11.23;;
68976;SDS011;56029;52.568;13.588;2023-04-16T10:51:40;20.20;;;11.55;;
68976;SDS011;56029;52.568;13.588;2023-04-16T10:56:38;18.38;;;10.52;;
68976;SDS011;56029;52.568;13.588;2023-04-16T10:59:05;18.40;;;10.40;;
68976;SDS011;56029;52.568;13.588;2023-04-16T11:01:40;20.00;;;11.02;;
68976;SDS011;56029;52.568;13.588;2023-04-16T11:12:36;22.33;;;12.33;;
68976;SDS011;56029;52.568;13.588;2023-04-16T11:15:03;15.82;;;9.60;;
68976;SDS011;56029;52.568;13.588;2023-04-16T11:17:31;15.18;;;9.25;;
68976;SDS011;56029;52.568;13.588;2023-04-16T11:20:05;14.52;;;8.80;;
68976;SDS011;56029;52.568;13.588;2023-04-16T11:22:34;14.50;;;8.57;;
68976;SDS011;56029;52.568;13.588;2023-04-16T11:25:01;15.87;;;9.40;;
68976;SDS011;56029;52.568;13.588;2023-04-16T11:27:28;17.48;;;10.23;;
68976;SDS011;56029;52.568;13.588;2023-04-16T11:29:58;17.40;;;10.32;;
68976;SDS011;56029;52.568;13.588;2023-04-16T11:32:25;23.55;;;13.30;;
68976;SDS011;56029;52.568;13.588;2023-04-16T11:34:52;21.23;;;12.93;;
68976;SDS011;56029;52.568;13.588;2023-04-16T11:37:18;19.02;;;11.75;;
68976;SDS011;56029;52.568;13.588;2023-04-16T11:39:52;16.17;;;9.67;;
68976;SDS011;56029;52.568;13.588;2023-04-16T11:42:18;16.73;;;10.02;;
68976;SDS011;56029;52.568;13.588;2023-04-16T11:44:45;16.20;;;10.25;;
68976;SDS011;56029;52.568;13.588;2023-04-16T11:47:11;17.20;;;10.57;;
68976;SDS011;56029;52.568;13.588;2023-04-16T11:49:38;17.63;;;10.60;;
68976;SDS011;56029;52.568;13.588;2023-04-16T11:52:03;20.40;;;11.83;;
68976;SDS011;56029;52.568;13.588;2023-04-16T11:54:29;24.25;;;13.38;;
68976;SDS011;56029;52.568;13.588;2023-04-16T11:56:58;22.77;;;13.30;;
68976;SDS011;56029;52.568;13.588;2023-04-16T11:59:25;22.27;;;13.18;;
68976;SDS011;56029;52.568;13.588;2023-04-16T12:01:51;22.77;;;13.30;;
68976;SDS011;56029;52.568;13.588;2023-04-16T12:04:21;22.88;;;13.13;;
68976;SDS011;56029;52.568;13.588;2023-04-16T12:09:34;21.87;;;11.93;;
68976;SDS011;56029;52.568;13.588;2023-04-16T12:12:01;23.75;;;13.68;;
68976;SDS011;56029;52.568;13.588;2023-04-16T12:14:28;23.73;;;14.52;;
68976;SDS011;56029;52.568;13.588;2023-04-16T12:16:54;23.75;;;13.98;;
68976;SDS011;56029;52.568;13.588;2023-04-16T12:19:20;21.43;;;12.90;;
68976;SDS011;56029;52.568;13.588;2023-04-16T12:21:46;21.15;;;11.95;;
68976;SDS011;56029;52.568;13.588;2023-04-16T12:24:14;20.58;;;11.70;;
68976;SDS011;56029;52.568;13.588;2023-04-16T12:26:42;19.70;;;11.83;;
68976;SDS011;56029;52.568;13.588;2023-04-16T12:31:46;19.13;;;11.30;;
68976;SDS011;56029;52.568;13.588;2023-04-16T12:34:12;20.08;;;12.25;;
68976;SDS011;56029;52.568;13.588;2023-04-16T12:36:41;20.10;;;11.73;;
68976;SDS011;56029;52.568;13.588;2023-04-16T12:39:08;18.60;;;11.70;;
68976;SDS011;56029;52.568;13.588;2023-04-16T12:41:35;19.98;;;11.65;;
68976;SDS011;56029;52.568;13.588;2023-04-16T12:44:06;18.30;;;10.43;;
68976;SDS011;56029;52.568;13.588;2023-04-16T12:46:42;19.10;;;11.15;;
68976;SDS011;56029;52.568;13.588;2023-04-16T12:49:09;20.00;;;12.27;;
68976;SDS011;56029;52.568;13.588;2023-04-16T12:51:35;21.27;;;13.10;;
68976;SDS011;56029;52.568;13.588;2023-04-16T12:54:02;19.92;;;11.23;;
68976;SDS011;56029;52.568;13.588;2023-04-16T12:56:34;19.15;;;10.40;;
68976;SDS011;56029;52.568;13.588;2023-04-16T12:59:00;20.88;;;12.63;;
68976;SDS011;56029;52.568;13.588;2023-04-16T13:01:26;17.83;;;10.90;;
68976;SDS011;56029;52.568;13.588;2023-04-16T13:03:52;17.77;;;11.07;;
68976;SDS011;56029;52.568;13.588;2023-04-16T13:06:18;20.00;;;12.70;;
68976;SDS011;56029;52.568;13.588;2023-04-16T13:08:44;18.42;;;11.27;;
68976;SDS011;56029;52.568;13.588;2023-04-16T13:11:10;19.30;;;11.38;;
68976;SDS011;56029;52.568;13.588;2023-04-16T13:13:36;25.50;;;13.67;;
68976;SDS011;56029;52.568;13.588;2023-04-16T13:16:01;21.58;;;13.68;;
68976;SDS011;56029;52.568;13.588;2023-04-16T13:18:33;22.58;;;13.43;;
68976;SDS011;56029;52.568;13.588;2023-04-16T13:20:59;23.70;;;14.07;;
68976;SDS011;56029;52.568;13.588;2023-04-16T13:23:24;22.67;;;13.10;;
68976;SDS011;56029;52.568;13.588;2023-04-16T13:25:50;20.60;;;11.87;;
68976;SDS011;56029;52.568;13.588;2023-04-16T13:28:15;19.92;;;11.60;;
68976;SDS011;56029;52.568;13.588;2023-04-16T13:30:41;19.53;;;11.13;;
68976;SDS011;56029;52.568;13.588;2023-04-16T13:33:07;20.88;;;12.43;;
68976;SDS011;56029;52.568;13.588;2023-04-16T13:35:33;21.07;;;12.53;;
68976;SDS011;56029;52.568;13.588;2023-04-16T13:38:00;19.55;;;11.32;;
68976;SDS011;56029;52.568;13.588;2023-04-16T13:40:25;19.13;;;11.38;;
68976;SDS011;56029;52.568;13.588;2023-04-16T13:42:51;20.27;;;12.00;;
68976;SDS011;56029;52.568;13.588;2023-04-16T13:45:16;19.93;;;11.70;;
68976;SDS011;56029;52.568;13.588;2023-04-16T13:47:44;18.50;;;11.07;;
68976;SDS011;56029;52.568;13.588;2023-04-16T13:50:10;18.23;;;11.10;;
68976;SDS011;56029;52.568;13.588;2023-04-16T13:52:36;18.65;;;11.45;;
68976;SDS011;56029;52.568;13.588;2023-04-16T13:55:01;18.95;;;11.68;;
68976;SDS011;56029;52.568;13.588;2023-04-16T13:57:27;19.03;;;11.20;;
68976;SDS011;56029;52.568;13.588;2023-04-16T13:59:55;18.83;;;11.57;;
68976;SDS011;56029;52.568;13.588;2023-04-16T14:02:20;17.13;;;10.52;;
68976;SDS011;56029;52.568;13.588;2023-04-16T14:04:46;16.53;;;10.70;;
68976;SDS011;56029;52.568;13.588;2023-04-16T14:07:12;17.50;;;10.90;;
68976;SDS011;56029;52.568;13.588;2023-04-16T14:09:38;16.37;;;10.10;;
68976;SDS011;56029;52.568;13.588;2023-04-16T14:12:04;16.73;;;10.10;;
68976;SDS011;56029;52.568;13.588;2023-04-16T14:14:29;18.13;;;11.20;;
68976;SDS011;56029;52.568;13.588;2023-04-16T14:16:56;16.58;;;9.93;;
68976;SDS011;56029;52.568;13.588;2023-04-16T14:19:22;17.30;;;10.77;;
68976;SDS011;56029;52.568;13.588;2023-04-16T14:21:48;16.13;;;9.90;;
68976;SDS011;56029;52.568;13.588;2023-04-16T14:24:13;15.93;;;9.83;;